Darstellungsparameter: Aktuell verwendete Einstellungen:
Skalierung der Graphiken ... ?
xyx+y,   Skalierungsfaktor:      Skalierung: Modus: x, Faktor: 1
Darstellungszeitraum ... ?
Vom - - bis: - -   Zeitraum: 01.07.2008 - 03.07.2008
Min/Max/Avg-Anzeige ... ?
Zeige MMA aktuell
Zeige MMA Monat
Zeige MMA alles
Zeige --A aktuell
Zeige --A Monat
Zeige --A alles
Keine MMA-Anzeige
MMA:
Keine MMA-Graphiken
MMA-Basis: 01.07.2008 - 03.07.2008
Quicknavigation für Darstellung... ?
Tage:      1T, 2T, 3T, 5T -1T -2T -3T -5T +1T +2T +3T +5T
Wochen: 1W, 2W, 3W -1W -2W -3W +1W +2W +3W
Monate: 1M, 3M, 6M -1M -3M -6M +1M +3M +6M
Jahre:    1J, 3J, 5J, 10J -1J -3J -5J -10J +1J +3J +5J +10J
Nutze für die Darstellung ... ?
Originaldaten oder Mittelwerte auf ...
Stundenbasis Tagesbasis Wochenbasis
Monatsbasis Jahresbasis      Datenbasis: Original-Daten
Darstellen als:
Statistik (Auto) Statistik J:M      Darstellung:
Zur Graphik,    zurück zur Übersicht aller Sensoren.
 
Tabellarische Datenbersicht: ?
 
Sensor: Nr:Datum:Temp:Abs-Feuchte:Windchill:Wind:
Aussen-T/F 1 01-07-2008 00:09:03 20 C 8.12 g/m*3 20 C 0 km/h
2 01-07-2008 00:21:03 19.8 C 8.2 g/m*3 19.8 C 0 km/h
3 01-07-2008 00:33:03 19.9 C 8.25 g/m*3 19.9 C 0 km/h
4 01-07-2008 00:45:03 19.5 C 8.22 g/m*3 19.5 C 0 km/h
5 01-07-2008 00:57:03 19.3 C 8.13 g/m*3 19.3 C 0 km/h
6 01-07-2008 01:09:03 19 C 7.99 g/m*3 19 C 0 km/h
7 01-07-2008 01:21:03 18.8 C 8.05 g/m*3 18.8 C 0 km/h
8 01-07-2008 01:33:03 18.7 C 8.01 g/m*3 18.7 C 0 km/h
9 01-07-2008 01:45:03 18.3 C 8.44 g/m*3 18.3 C 0 km/h
10 01-07-2008 01:57:03 17.9 C 8.55 g/m*3 17.9 C 0 km/h
11 01-07-2008 02:09:03 17.7 C 8.3 g/m*3 17.7 C 0 km/h
12 01-07-2008 02:21:03 17.5 C 8.35 g/m*3 17.5 C 0 km/h
13 01-07-2008 02:33:03 17.2 C 8.35 g/m*3 17.2 C 0 km/h
14 01-07-2008 02:45:03 16.8 C 8.58 g/m*3 16.8 C 0 km/h
15 01-07-2008 02:57:04 16.7 C 8.67 g/m*3 16.7 C 0 km/h
16 01-07-2008 03:09:04 16.3 C 8.46 g/m*3 16.3 C 0 km/h
17 01-07-2008 03:21:04 16.3 C 8.46 g/m*3 16.3 C 0 km/h
18 01-07-2008 03:33:04 16.1 C 8.5 g/m*3 16.1 C 0 km/h
19 01-07-2008 03:45:04 15.8 C 8.62 g/m*3 15.8 C 0 km/h
20 01-07-2008 03:57:04 15.7 C 8.43 g/m*3 15.7 C 0 km/h
21 01-07-2008 04:09:04 15.7 C 8.56 g/m*3 15.7 C 0 km/h
22 01-07-2008 04:21:04 15.4 C 8.54 g/m*3 15.4 C 0 km/h
23 01-07-2008 04:33:04 15.2 C 8.44 g/m*3 15.2 C 0 km/h
24 01-07-2008 04:45:04 15.2 C 8.57 g/m*3 15.2 C 0 km/h
25 01-07-2008 04:57:04 15 C 8.72 g/m*3 15 C 0 km/h
Sensor: Nr:Datum:Temp:Abs-Feuchte:Windchill:Wind:
Aussen-T/F 26 01-07-2008 05:09:04 14.6 C 8.76 g/m*3 14.6 C 0 km/h
27 01-07-2008 05:21:04 14.4 C 8.65 g/m*3 14.4 C 0 km/h
28 01-07-2008 05:33:04 14.4 C 8.78 g/m*3 14.4 C 0 km/h
29 01-07-2008 05:45:04 14.4 C 8.78 g/m*3 14.4 C 0 km/h
30 01-07-2008 05:57:04 14.1 C 8.86 g/m*3 14.1 C 0 km/h
31 01-07-2008 06:09:04 13.9 C 8.87 g/m*3 13.9 C 0 km/h
32 01-07-2008 06:21:04 14 C 8.93 g/m*3 14 C 0 km/h
33 01-07-2008 06:33:04 14.1 C 8.86 g/m*3 14.1 C 0 km/h
34 01-07-2008 06:45:04 14.2 C 8.91 g/m*3 14.2 C 0 km/h
35 01-07-2008 06:57:05 14.2 C 8.91 g/m*3 14.2 C 0 km/h
36 01-07-2008 07:09:01 14.2 C 8.91 g/m*3 14.2 C 0 km/h
37 01-07-2008 07:21:02 14.3 C 8.97 g/m*3 14.3 C 0 km/h
38 01-07-2008 07:33:01 14.4 C 8.9 g/m*3 14.4 C 0 km/h
39 01-07-2008 07:45:02 14.6 C 9.01 g/m*3 14.6 C 0 km/h
40 01-07-2008 07:57:02 14.8 C 8.99 g/m*3 14.8 C 0 km/h
41 01-07-2008 08:09:01 15.2 C 9.09 g/m*3 15.2 C 0 km/h
42 01-07-2008 08:21:02 15.8 C 9.42 g/m*3 15.8 C 0 km/h
43 01-07-2008 08:33:02 16.1 C 9.32 g/m*3 16.1 C 0 km/h
44 01-07-2008 08:45:02 16.6 C 9.32 g/m*3 16.6 C 0 km/h
45 01-07-2008 08:57:02 17.1 C 9.32 g/m*3 17.1 C 0 km/h
46 01-07-2008 09:09:02 17.7 C 9.35 g/m*3 17.7 C 0 km/h
47 01-07-2008 09:21:02 18.3 C 9.38 g/m*3 18.3 C 0 km/h
48 01-07-2008 09:33:02 19.1 C 9.34 g/m*3 19.1 C 0 km/h
49 01-07-2008 09:45:02 19.7 C 9.34 g/m*3 19.7 C 0 km/h
50 01-07-2008 09:57:02 20.7 C 9.36 g/m*3 20.7 C 0 km/h
Sensor: Nr:Datum:Temp:Abs-Feuchte:Windchill:Wind:
Aussen-T/F 51 01-07-2008 10:09:01 21.4 C 9.19 g/m*3 21.4 C 0 km/h
52 01-07-2008 10:21:02 22.3 C 9.08 g/m*3 22.3 C 0 km/h
53 01-07-2008 10:33:01 22.8 C 8.74 g/m*3 22.8 C 0 km/h
54 01-07-2008 10:45:02 23.8 C 8.82 g/m*3 23.8 C 0 km/h
55 01-07-2008 10:57:02 24.4 C 8.46 g/m*3 24.4 C 0 km/h
56 01-07-2008 11:09:01 25.2 C 8.61 g/m*3 25.2 C 0 km/h
57 01-07-2008 11:21:02 25.4 C 8.24 g/m*3 25.4 C 0 km/h
58 01-07-2008 11:33:01 25.8 C 8.19 g/m*3 25.8 C 0 km/h
59 01-07-2008 11:45:03 26.8 C 8.14 g/m*3 26.8 C 0 km/h
60 01-07-2008 11:57:03 26.3 C 7.67 g/m*3 26.3 C 0 km/h
61 01-07-2008 12:09:02 28.2 C 7.42 g/m*3 28.2 C 0 km/h
62 01-07-2008 12:21:03 29.2 C 7.26 g/m*3 29.2 C 0 km/h
63 01-07-2008 12:33:02 30.1 C 7.32 g/m*3 30.1 C 0 km/h
64 01-07-2008 12:45:02 30.2 C 7.05 g/m*3 30.2 C 0 km/h
65 01-07-2008 12:57:02 30.1 C 6.71 g/m*3 30.1 C 0 km/h
66 01-07-2008 13:09:02 30.6 C 6.58 g/m*3 30.6 C 0 km/h
67 01-07-2008 13:21:02 31 C 6.4 g/m*3 31 C 0 km/h
68 01-07-2008 13:33:02 31.5 C 6.57 g/m*3 31.5 C 0 km/h
69 01-07-2008 13:45:02 31.7 C 6.64 g/m*3 31.7 C 0 km/h
70 01-07-2008 13:57:02 31.8 C 6.68 g/m*3 31.8 C 0 km/h
71 01-07-2008 14:09:02 31.8 C 6.68 g/m*3 31.8 C 0 km/h
72 01-07-2008 14:21:02 31.4 C 6.54 g/m*3 31.4 C 0 km/h
73 01-07-2008 14:33:03 31.7 C 6.64 g/m*3 31.7 C 0 km/h
74 01-07-2008 14:45:02 32 C 6.75 g/m*3 32 C 0 km/h
75 01-07-2008 14:57:02 32 C 6.75 g/m*3 32 C 0 km/h
Sensor: Nr:Datum:Temp:Abs-Feuchte:Windchill:Wind:
Aussen-T/F 76 01-07-2008 15:09:02 31.9 C 6.72 g/m*3 31.9 C 0 km/h
77 01-07-2008 15:21:02 32 C 6.75 g/m*3 32 C 0 km/h
78 01-07-2008 15:33:02 32.7 C 7.01 g/m*3 32.7 C 0 km/h
79 01-07-2008 15:45:02 32.7 C 7.01 g/m*3 32.7 C 0 km/h
80 01-07-2008 15:57:02 33.3 C 7.23 g/m*3 33.3 C 0 km/h
81 01-07-2008 16:09:01 32.8 C 7.04 g/m*3 32.8 C 0 km/h
82 01-07-2008 16:21:02 33.2 C 7.2 g/m*3 33.2 C 0 km/h
83 01-07-2008 16:33:01 33.3 C 7.23 g/m*3 33.3 C 0 km/h
84 01-07-2008 16:45:03 33.7 C 7.39 g/m*3 33.7 C 0 km/h
85 01-07-2008 16:57:03 33.8 C 7.43 g/m*3 33.8 C 0 km/h
86 01-07-2008 17:09:02 34.1 C 7.54 g/m*3 34.1 C 0 km/h
87 01-07-2008 17:21:03 34.2 C 7.58 g/m*3 34.2 C 0 km/h
88 01-07-2008 17:33:02 33.9 C 7.46 g/m*3 33.9 C 0 km/h
89 01-07-2008 17:45:01 34 C 7.5 g/m*3 34 C 0 km/h
90 01-07-2008 17:57:01 34 C 7.5 g/m*3 34 C 0 km/h
91 01-07-2008 18:09:02 33.7 C 7.39 g/m*3 33.7 C 0 km/h
92 01-07-2008 18:21:01 34.2 C 7.58 g/m*3 34.2 C 0 km/h
93 01-07-2008 18:33:01 34 C 7.5 g/m*3 34 C 0 km/h
94 01-07-2008 18:45:01 33.8 C 7.43 g/m*3 33.8 C 0 km/h
95 01-07-2008 18:57:01 34 C 7.5 g/m*3 34 C 0 km/h
96 01-07-2008 19:09:02 34.1 C 7.54 g/m*3 34.1 C 0 km/h
97 01-07-2008 19:21:01 33.8 C 7.43 g/m*3 33.8 C 0 km/h
98 01-07-2008 19:33:02 33.8 C 7.43 g/m*3 33.8 C 0 km/h
99 01-07-2008 19:45:02 33.8 C 7.43 g/m*3 33.8 C 0 km/h
100 01-07-2008 19:57:02 33.5 C 7.31 g/m*3 33.5 C 0 km/h
Sensor: Nr:Datum:Temp:Abs-Feuchte:Windchill:Wind:
Aussen-T/F 101 01-07-2008 20:09:02 33.1 C 7.16 g/m*3 33.1 C 0 km/h
102 01-07-2008 20:21:02 32.6 C 6.97 g/m*3 32.6 C 0 km/h
103 01-07-2008 20:33:02 32.3 C 6.86 g/m*3 32.3 C 0 km/h
104 01-07-2008 20:45:01 31.6 C 6.94 g/m*3 31.6 C 0 km/h
105 01-07-2008 20:57:01 30.7 C 7.87 g/m*3 30.7 C 0 km/h
106 01-07-2008 21:09:01 29.9 C 8.14 g/m*3 29.9 C 0 km/h
107 01-07-2008 21:21:01 29 C 8.04 g/m*3 29 C 0 km/h
108 01-07-2008 21:33:02 28.3 C 8.29 g/m*3 28.3 C 0 km/h
109 01-07-2008 21:45:03 27.6 C 8.25 g/m*3 27.6 C 0 km/h
110 01-07-2008 21:57:03 26.9 C 8.19 g/m*3 26.9 C 0 km/h
111 01-07-2008 22:09:02 26.4 C 8.21 g/m*3 26.4 C 0 km/h
112 01-07-2008 22:22:03 26 C 8.52 g/m*3 26 C 0 km/h
113 01-07-2008 22:34:03 25.4 C 8.48 g/m*3 25.4 C 0 km/h
114 01-07-2008 22:46:03 25.3 C 8.66 g/m*3 25.3 C 0 km/h
115 01-07-2008 22:58:03 25.1 C 8.57 g/m*3 25.1 C 0 km/h
116 01-07-2008 23:10:03 24.8 C 8.65 g/m*3 24.8 C 0 km/h
117 01-07-2008 23:22:03 24.5 C 8.73 g/m*3 24.5 C 0 km/h
118 01-07-2008 23:34:03 24.4 C 8.68 g/m*3 24.4 C 0 km/h
119 01-07-2008 23:46:03 24.2 C 8.8 g/m*3 24.2 C 0 km/h
120 01-07-2008 23:58:03 24.1 C 8.75 g/m*3 24.1 C 0 km/h
121 02-07-2008 00:10:03 24 C 8.49 g/m*3 24 C 0 km/h
122 02-07-2008 00:22:03 23.9 C 8.87 g/m*3 23.9 C 0 km/h
123 02-07-2008 00:34:03 23.9 C 8.65 g/m*3 23.9 C 0 km/h
124 02-07-2008 00:46:03 23.7 C 8.77 g/m*3 23.7 C 0 km/h
125 02-07-2008 00:58:03 23.7 C 8.77 g/m*3 23.7 C 0 km/h
Sensor: Nr:Datum:Temp:Abs-Feuchte:Windchill:Wind:
Aussen-T/F 126 02-07-2008 01:10:03 23.6 C 8.93 g/m*3 23.6 C 0 km/h
127 02-07-2008 01:22:03 23.5 C 8.88 g/m*3 23.5 C 0 km/h
128 02-07-2008 01:34:03 23.4 C 8.83 g/m*3 23.4 C 0 km/h
129 02-07-2008 01:46:03 23.2 C 9.15 g/m*3 23.2 C 0 km/h
130 02-07-2008 01:58:03 22.8 C 9.75 g/m*3 22.8 C 0 km/h
131 02-07-2008 02:10:04 22.3 C 9.87 g/m*3 22.3 C 0 km/h
132 02-07-2008 02:22:04 22.1 C 9.56 g/m*3 22.1 C 0 km/h
133 02-07-2008 02:34:04 21.8 C 9.78 g/m*3 21.8 C 0 km/h
134 02-07-2008 02:46:04 21.6 C 9.86 g/m*3 21.6 C 0 km/h
135 02-07-2008 02:58:04 21.4 C 9.75 g/m*3 21.4 C 0 km/h
136 02-07-2008 03:10:04 21.1 C 10.13 g/m*3 21.1 C 0 km/h
137 02-07-2008 03:22:04 21 C 10.08 g/m*3 21 C 0 km/h
138 02-07-2008 03:34:04 20.8 C 10.14 g/m*3 20.8 C 0 km/h
139 02-07-2008 03:46:04 20.6 C 10.02 g/m*3 20.6 C 0 km/h
140 02-07-2008 03:58:04 20.4 C 10.08 g/m*3 20.4 C 0 km/h
141 02-07-2008 04:10:04 20.4 C 10.26 g/m*3 20.4 C 0 km/h
142 02-07-2008 04:22:04 20 C 10.2 g/m*3 20 C 0 km/h
143 02-07-2008 04:34:04 19.7 C 10.36 g/m*3 19.7 C 0 km/h
144 02-07-2008 04:46:04 19.8 C 10.42 g/m*3 19.8 C 0 km/h
145 02-07-2008 04:58:04 19.5 C 10.24 g/m*3 19.5 C 0 km/h
146 02-07-2008 05:10:04 19.4 C 10.18 g/m*3 19.4 C 0 km/h
147 02-07-2008 05:22:04 19.2 C 10.22 g/m*3 19.2 C 0 km/h
148 02-07-2008 05:34:04 19.1 C 10.16 g/m*3 19.1 C 0 km/h
149 02-07-2008 05:46:04 19 C 10.1 g/m*3 19 C 0 km/h
150 02-07-2008 05:58:04 18.8 C 10.31 g/m*3 18.8 C 0 km/h
Sensor: Nr:Datum:Temp:Abs-Feuchte:Windchill:Wind:
Aussen-T/F 151 02-07-2008 06:10:04 18.9 C 10.37 g/m*3 18.9 C 0 km/h
152 02-07-2008 06:22:05 18.9 C 10.69 g/m*3 18.9 C 0 km/h
153 02-07-2008 06:34:05 19.1 C 10.66 g/m*3 19.1 C 0 km/h
154 02-07-2008 06:46:05 19.1 C 10.66 g/m*3 19.1 C 0 km/h
155 02-07-2008 06:58:05 19.2 C 10.72 g/m*3 19.2 C 0 km/h
156 02-07-2008 07:10:03 19.3 C 10.78 g/m*3 19.3 C 0 km/h
157 02-07-2008 07:22:03 19.5 C 10.91 g/m*3 19.5 C 0 km/h
158 02-07-2008 07:34:03 19.7 C 10.87 g/m*3 19.7 C 0 km/h
159 02-07-2008 07:46:02 19.7 C 10.87 g/m*3 19.7 C 0 km/h
160 02-07-2008 07:58:02 19.9 C 11 g/m*3 19.9 C 0 km/h
161 02-07-2008 08:10:02 20.4 C 10.97 g/m*3 20.4 C 0 km/h
162 02-07-2008 08:22:02 20.8 C 11.05 g/m*3 20.8 C 0 km/h
163 02-07-2008 08:34:02 21 C 10.81 g/m*3 21 C 0 km/h
164 02-07-2008 08:46:02 21.5 C 10.94 g/m*3 21.5 C 0 km/h
165 02-07-2008 08:58:02 22 C 10.67 g/m*3 22 C 0 km/h
166 02-07-2008 09:10:03 22.7 C 10.51 g/m*3 22.7 C 0 km/h
167 02-07-2008 09:22:02 23.5 C 10.57 g/m*3 23.5 C 0 km/h
168 02-07-2008 09:34:03 24.2 C 10.56 g/m*3 24.2 C 0 km/h
169 02-07-2008 09:46:02 24.9 C 10.07 g/m*3 24.9 C 0 km/h
170 02-07-2008 09:58:02 25.7 C 9.58 g/m*3 25.7 C 0 km/h
171 02-07-2008 10:10:01 26.1 C 9.3 g/m*3 26.1 C 0 km/h
172 02-07-2008 10:22:02 26.9 C 9.73 g/m*3 26.9 C 0 km/h
173 02-07-2008 10:34:01 27.5 C 9.26 g/m*3 27.5 C 0 km/h
174 02-07-2008 10:46:02 28.2 C 9.35 g/m*3 28.2 C 0 km/h
175 02-07-2008 10:58:02 28.6 C 9.55 g/m*3 28.6 C 0 km/h
Sensor: Nr:Datum:Temp:Abs-Feuchte:Windchill:Wind:
Aussen-T/F 176 02-07-2008 11:10:01 29.4 C 9.69 g/m*3 29.4 C 0 km/h
177 02-07-2008 11:22:02 29.7 C 9.55 g/m*3 29.7 C 0 km/h
178 02-07-2008 11:34:01 30.4 C 9.61 g/m*3 30.4 C 0 km/h
179 02-07-2008 11:46:03 30.8 C 9.5 g/m*3 30.8 C 0 km/h
180 02-07-2008 11:58:03 31.3 C 9.11 g/m*3 31.3 C 0 km/h
181 02-07-2008 12:10:02 31.8 C 8.68 g/m*3 31.8 C 0 km/h
182 02-07-2008 12:22:03 31.4 C 8.5 g/m*3 31.4 C 0 km/h
183 02-07-2008 12:34:02 31.7 C 8.64 g/m*3 31.7 C 0 km/h
184 02-07-2008 12:46:02 31.4 C 8.17 g/m*3 31.4 C 0 km/h
185 02-07-2008 12:58:02 32 C 7.43 g/m*3 32 C 0 km/h
186 02-07-2008 13:10:02 33.3 C 7.23 g/m*3 33.3 C 0 km/h
187 02-07-2008 13:22:02 33.8 C 7.43 g/m*3 33.8 C 0 km/h
188 02-07-2008 13:34:02 34.3 C 7.62 g/m*3 34.3 C 0 km/h
189 02-07-2008 13:46:02 32.3 C 6.86 g/m*3 32.3 C 0 km/h
190 02-07-2008 13:58:02 32.6 C 6.97 g/m*3 32.6 C 0 km/h
191 02-07-2008 14:10:02 32.9 C 7.08 g/m*3 32.9 C 0 km/h
192 02-07-2008 14:22:02 32.5 C 6.93 g/m*3 32.5 C 0 km/h
193 02-07-2008 14:34:02 32.8 C 7.04 g/m*3 32.8 C 0 km/h
194 02-07-2008 14:46:01 33.1 C 7.16 g/m*3 33.1 C 0 km/h
195 02-07-2008 14:58:01 32.5 C 6.93 g/m*3 32.5 C 0 km/h
196 02-07-2008 15:10:02 32.7 C 7.01 g/m*3 32.7 C 0 km/h
197 02-07-2008 15:22:01 32.5 C 6.93 g/m*3 32.5 C 0 km/h
198 02-07-2008 15:34:02 33.1 C 7.16 g/m*3 33.1 C 0 km/h
199 02-07-2008 15:46:02 33.3 C 7.23 g/m*3 33.3 C 0 km/h
200 02-07-2008 15:58:02 34.3 C 7.62 g/m*3 34.3 C 0 km/h
Sensor: Nr:Datum:Temp:Abs-Feuchte:Windchill:Wind:
Aussen-T/F 201 02-07-2008 16:10:02 33.8 C 7.43 g/m*3 33.8 C 0 km/h
202 02-07-2008 16:22:02 33.8 C 7.43 g/m*3 33.8 C 0 km/h
203 02-07-2008 16:34:02 33.8 C 7.43 g/m*3 33.8 C 0 km/h
204 02-07-2008 16:46:02 34.6 C 7.74 g/m*3 34.6 C 0 km/h
205 02-07-2008 16:58:02 34.2 C 7.58 g/m*3 34.2 C 0 km/h
206 02-07-2008 17:10:02 33.5 C 7.31 g/m*3 33.5 C 0 km/h
207 02-07-2008 17:22:02 34.4 C 7.66 g/m*3 34.4 C 0 km/h
208 02-07-2008 17:34:03 34.6 C 7.74 g/m*3 34.6 C 0 km/h
209 02-07-2008 17:46:02 35 C 7.91 g/m*3 35 C 0 km/h
210 02-07-2008 17:58:02 35.3 C 8.03 g/m*3 35.3 C 0 km/h
211 02-07-2008 18:10:01 35.2 C 7.99 g/m*3 35.2 C 0 km/h
212 02-07-2008 18:22:02 35.2 C 7.99 g/m*3 35.2 C 0 km/h
213 02-07-2008 18:34:01 34.6 C 7.74 g/m*3 34.6 C 0 km/h
214 02-07-2008 18:46:02 33.7 C 7.39 g/m*3 33.7 C 0 km/h
215 02-07-2008 18:58:02 33.8 C 7.43 g/m*3 33.8 C 0 km/h
216 02-07-2008 19:10:01 33.2 C 7.55 g/m*3 33.2 C 0 km/h
217 02-07-2008 19:22:02 32 C 7.76 g/m*3 32 C 0 km/h
218 02-07-2008 19:34:01 31.4 C 8.17 g/m*3 31.4 C 0 km/h
219 02-07-2008 19:46:02 30.9 C 8.28 g/m*3 30.9 C 0 km/h
220 02-07-2008 19:58:02 30.6 C 8.14 g/m*3 30.6 C 0 km/h
221 02-07-2008 20:10:01 30.4 C 8.37 g/m*3 30.4 C 0 km/h
222 02-07-2008 20:22:02 29.2 C 10.16 g/m*3 29.2 C 0 km/h
223 02-07-2008 20:34:01 27.9 C 10.55 g/m*3 27.9 C 0 km/h
224 02-07-2008 20:46:01 28 C 11.15 g/m*3 28 C 0 km/h
225 02-07-2008 20:58:01 25.2 C 15.13 g/m*3 25.2 C 0 km/h
Sensor: Nr:Datum:Temp:Abs-Feuchte:Windchill:Wind:
Aussen-T/F 226 02-07-2008 21:10:01 25.3 C 13.11 g/m*3 25.3 C 0 km/h
227 02-07-2008 21:22:01 25.7 C 12.69 g/m*3 25.7 C 0 km/h
228 02-07-2008 21:34:01 24.8 C 12.52 g/m*3 24.8 C 0 km/h
229 02-07-2008 21:46:01 24 C 12.18 g/m*3 24 C 0 km/h
230 02-07-2008 21:58:01 24 C 12.62 g/m*3 24 C 0 km/h
231 02-07-2008 22:11:01 24.2 C 12.54 g/m*3 24.2 C 0 km/h
232 02-07-2008 22:23:01 23.4 C 12.62 g/m*3 23.4 C 0 km/h
233 02-07-2008 22:35:01 23.3 C 12.13 g/m*3 23.3 C 0 km/h
234 02-07-2008 22:47:01 23.5 C 12.27 g/m*3 23.5 C 0 km/h
235 02-07-2008 22:59:01 23.4 C 11.78 g/m*3 23.4 C 0 km/h
236 02-07-2008 23:11:01 23.3 C 11.92 g/m*3 23.3 C 0 km/h
237 02-07-2008 23:23:01 23 C 12.13 g/m*3 23 C 0 km/h
238 02-07-2008 23:35:01 22.7 C 12.12 g/m*3 22.7 C 0 km/h
239 02-07-2008 23:47:01 22.7 C 12.12 g/m*3 22.7 C 0 km/h
240 02-07-2008 23:59:02 22.6 C 12.05 g/m*3 22.6 C 0 km/h
241 03-07-2008 00:11:02 22.7 C 11.92 g/m*3 22.7 C 0 km/h
242 03-07-2008 00:23:02 22.7 C 11.72 g/m*3 22.7 C 0 km/h
243 03-07-2008 00:35:02 22.5 C 11.58 g/m*3 22.5 C 0 km/h
244 03-07-2008 00:47:02 22.3 C 11.45 g/m*3 22.3 C 0 km/h
245 03-07-2008 00:59:02 21.6 C 11.76 g/m*3 21.6 C 0 km/h
246 03-07-2008 01:11:02 21.3 C 11.93 g/m*3 21.3 C 0 km/h
247 03-07-2008 01:23:02 21.3 C 12.12 g/m*3 21.3 C 0 km/h
248 03-07-2008 01:35:02 20.5 C 12.99 g/m*3 20.5 C 0 km/h
249 03-07-2008 01:47:02 20.4 C 13.27 g/m*3 20.4 C 0 km/h
250 03-07-2008 01:59:02 21 C 13.19 g/m*3 21 C 0 km/h
Sensor: Nr:Datum:Temp:Abs-Feuchte:Windchill:Wind:
Aussen-T/F 251 03-07-2008 02:11:02 21.2 C 12.6 g/m*3 21.2 C 0 km/h
252 03-07-2008 02:23:02 21.2 C 12.23 g/m*3 21.2 C 0 km/h
253 03-07-2008 02:35:02 21.2 C 11.86 g/m*3 21.2 C 0 km/h
254 03-07-2008 02:47:02 21.3 C 11.93 g/m*3 21.3 C 0 km/h
255 03-07-2008 02:59:02 21.3 C 11.93 g/m*3 21.3 C 0 km/h
256 03-07-2008 03:11:02 21.3 C 11.93 g/m*3 21.3 C 0 km/h
257 03-07-2008 03:23:02 20 C 13.13 g/m*3 20 C 0 km/h
258 03-07-2008 03:35:02 19.4 C 13.51 g/m*3 19.4 C 0 km/h
259 03-07-2008 03:47:02 19.7 C 13.41 g/m*3 19.7 C 0 km/h
260 03-07-2008 03:59:02 19.9 C 13.4 g/m*3 19.9 C 0 km/h
261 03-07-2008 04:11:03 19.9 C 13.4 g/m*3 19.9 C 0 km/h
262 03-07-2008 04:23:03 20 C 13.48 g/m*3 20 C 0 km/h
263 03-07-2008 04:35:03 19.8 C 13.32 g/m*3 19.8 C 0 km/h
264 03-07-2008 04:47:03 19.8 C 13.32 g/m*3 19.8 C 0 km/h
265 03-07-2008 04:59:03 19.5 C 13.09 g/m*3 19.5 C 0 km/h
266 03-07-2008 05:11:03 19.5 C 13.26 g/m*3 19.5 C 0 km/h
267 03-07-2008 05:23:03 19.3 C 13.1 g/m*3 19.3 C 0 km/h
268 03-07-2008 05:35:03 19.3 C 13.1 g/m*3 19.3 C 0 km/h
269 03-07-2008 05:47:03 19.5 C 13.26 g/m*3 19.5 C 0 km/h
270 03-07-2008 05:59:03 19.5 C 13.26 g/m*3 19.5 C 0 km/h
271 03-07-2008 06:11:03 19.4 C 13.18 g/m*3 19.4 C 0 km/h
272 03-07-2008 06:23:03 19.7 C 13.41 g/m*3 19.7 C 0 km/h
273 03-07-2008 06:35:02 19.9 C 13.57 g/m*3 19.9 C 0 km/h
274 03-07-2008 06:47:02 19.8 C 13.32 g/m*3 19.8 C 0 km/h
275 03-07-2008 06:59:02 20 C 13.13 g/m*3 20 C 0 km/h
Sensor: Nr:Datum:Temp:Abs-Feuchte:Windchill:Wind:
Aussen-T/F 276 03-07-2008 07:11:02 20.2 C 13.46 g/m*3 20.2 C 0 km/h
277 03-07-2008 07:23:02 20.6 C 13.42 g/m*3 20.6 C 0 km/h
278 03-07-2008 07:35:02 20.8 C 13.4 g/m*3 20.8 C 0 km/h
279 03-07-2008 07:47:02 20.6 C 12.71 g/m*3 20.6 C 0 km/h
280 03-07-2008 07:59:02 20.8 C 12.86 g/m*3 20.8 C 0 km/h
281 03-07-2008 08:11:02 21.5 C 12.63 g/m*3 21.5 C 0 km/h
282 03-07-2008 08:23:02 21.2 C 12.42 g/m*3 21.2 C 0 km/h
283 03-07-2008 08:35:02 21.4 C 12.56 g/m*3 21.4 C 0 km/h
284 03-07-2008 08:47:02 21.7 C 12.02 g/m*3 21.7 C 0 km/h
285 03-07-2008 08:59:02 21.2 C 11.68 g/m*3 21.2 C 0 km/h
286 03-07-2008 09:11:02 21.6 C 12.14 g/m*3 21.6 C 0 km/h
287 03-07-2008 09:23:02 22 C 12.03 g/m*3 22 C 0 km/h
288 03-07-2008 09:35:02 22.2 C 11.78 g/m*3 22.2 C 0 km/h
289 03-07-2008 09:47:02 22.6 C 11.85 g/m*3 22.6 C 0 km/h
290 03-07-2008 09:59:02 23.3 C 11.71 g/m*3 23.3 C 0 km/h
291 03-07-2008 10:11:02 23.3 C 11.71 g/m*3 23.3 C 0 km/h
292 03-07-2008 10:23:02 22.8 C 11.79 g/m*3 22.8 C 0 km/h
293 03-07-2008 10:35:03 22.7 C 11.92 g/m*3 22.7 C 0 km/h
294 03-07-2008 10:47:02 22.5 C 11.98 g/m*3 22.5 C 0 km/h
295 03-07-2008 10:59:02 22.7 C 12.12 g/m*3 22.7 C 0 km/h
296 03-07-2008 11:11:02 22.9 C 11.85 g/m*3 22.9 C 0 km/h
297 03-07-2008 11:23:02 23.1 C 11.78 g/m*3 23.1 C 0 km/h
298 03-07-2008 11:35:01 23 C 11.92 g/m*3 23 C 0 km/h
299 03-07-2008 11:47:02 23.8 C 11.83 g/m*3 23.8 C 0 km/h
300 03-07-2008 11:59:02 24.2 C 11.66 g/m*3 24.2 C 0 km/h
Sensor: Nr:Datum:Temp:Abs-Feuchte:Windchill:Wind:
Aussen-T/F 301 03-07-2008 12:11:01 23.5 C 11.84 g/m*3 23.5 C 0 km/h
302 03-07-2008 12:23:02 23.7 C 11.76 g/m*3 23.7 C 0 km/h
303 03-07-2008 12:35:01 23.7 C 11.76 g/m*3 23.7 C 0 km/h
304 03-07-2008 12:47:02 23.5 C 12.05 g/m*3 23.5 C 0 km/h
305 03-07-2008 12:59:02 23.3 C 12.55 g/m*3 23.3 C 0 km/h
306 03-07-2008 13:11:01 22.5 C 12.78 g/m*3 22.5 C 0 km/h
307 03-07-2008 13:23:02 23.4 C 13.67 g/m*3 23.4 C 0 km/h
308 03-07-2008 13:35:01 24.5 C 12.53 g/m*3 24.5 C 0 km/h
309 03-07-2008 13:47:02 25.1 C 11.57 g/m*3 25.1 C 0 km/h
310 03-07-2008 13:59:02 25.3 C 11.47 g/m*3 25.3 C 0 km/h
311 03-07-2008 14:11:02 25.7 C 11.01 g/m*3 25.7 C 0 km/h
312 03-07-2008 14:23:03 26.1 C 10.28 g/m*3 26.1 C 0 km/h
313 03-07-2008 14:35:02 26.1 C 10.53 g/m*3 26.1 C 0 km/h
314 03-07-2008 14:47:01 25.7 C 11.01 g/m*3 25.7 C 0 km/h
315 03-07-2008 14:59:01 23.9 C 11.03 g/m*3 23.9 C 0 km/h
316 03-07-2008 15:11:02 21.3 C 13.61 g/m*3 21.3 C 0 km/h
317 03-07-2008 15:23:01 20.2 C 13.99 g/m*3 20.2 C 0 km/h
318 03-07-2008 15:35:01 20 C 14.17 g/m*3 20 C 0 km/h
319 03-07-2008 15:47:01 20 C 14.34 g/m*3 20 C 0 km/h
320 03-07-2008 15:59:01 19.8 C 14.18 g/m*3 19.8 C 0 km/h
321 03-07-2008 16:11:02 19.9 C 14.26 g/m*3 19.9 C 0 km/h
322 03-07-2008 16:23:01 20.3 C 14.77 g/m*3 20.3 C 0 km/h
323 03-07-2008 16:35:02 20 C 14.52 g/m*3 20 C 0 km/h
324 03-07-2008 16:47:02 19.5 C 14.1 g/m*3 19.5 C 0 km/h
325 03-07-2008 16:59:02 17 C 12.01 g/m*3 17 C 0 km/h
Sensor: Nr:Datum:Temp:Abs-Feuchte:Windchill:Wind:
Aussen-T/F 326 03-07-2008 17:11:02 17 C 12.59 g/m*3 17 C 0 km/h
327 03-07-2008 17:23:02 17.4 C 13.19 g/m*3 17.4 C 0 km/h
328 03-07-2008 17:35:02 17.2 C 12.89 g/m*3 17.2 C 0 km/h
329 03-07-2008 17:47:02 16.8 C 12.44 g/m*3 16.8 C 0 km/h
330 03-07-2008 17:59:03 17.3 C 12.82 g/m*3 17.3 C 0 km/h
331 03-07-2008 18:11:01 17.8 C 13.05 g/m*3 17.8 C 0 km/h
332 03-07-2008 18:23:02 17.5 C 12.67 g/m*3 17.5 C 0 km/h
333 03-07-2008 18:35:02 17.5 C 12.82 g/m*3 17.5 C 0 km/h
334 03-07-2008 18:47:02 17.7 C 13.13 g/m*3 17.7 C 0 km/h
335 03-07-2008 18:59:02 17.7 C 13.13 g/m*3 17.7 C 0 km/h
336 03-07-2008 19:11:02 17.9 C 13.28 g/m*3 17.9 C 0 km/h
337 03-07-2008 19:23:02 17.7 C 12.82 g/m*3 17.7 C 0 km/h
338 03-07-2008 19:35:02 17.6 C 12.45 g/m*3 17.6 C 0 km/h
339 03-07-2008 19:47:02 17.6 C 12.6 g/m*3 17.6 C 0 km/h
340 03-07-2008 19:59:02 17.3 C 12.52 g/m*3 17.3 C 0 km/h
341 03-07-2008 20:11:02 17.1 C 12.52 g/m*3 17.1 C 0 km/h
342 03-07-2008 20:23:02 17.2 C 12.74 g/m*3 17.2 C 0 km/h
343 03-07-2008 20:35:02 17 C 12.44 g/m*3 17 C 0 km/h
344 03-07-2008 20:47:02 17.1 C 12.66 g/m*3 17.1 C 0 km/h
345 03-07-2008 20:59:02 17 C 12.73 g/m*3 17 C 0 km/h
346 03-07-2008 21:11:02 16.9 C 12.8 g/m*3 16.9 C 0 km/h
347 03-07-2008 21:23:02 16.8 C 12.72 g/m*3 16.8 C 0 km/h
348 03-07-2008 21:35:02 16.5 C 12.5 g/m*3 16.5 C 0 km/h
349 03-07-2008 21:47:02 16.4 C 12.42 g/m*3 16.4 C 0 km/h
350 03-07-2008 21:59:02 16 C 12.13 g/m*3 16 C 0 km/h
Sensor: Nr:Datum:Temp:Abs-Feuchte:Windchill:Wind:
Aussen-T/F 351 03-07-2008 22:12:02 15.6 C 11.97 g/m*3 15.6 C 0 km/h
352 03-07-2008 22:24:03 15.3 C 11.75 g/m*3 15.3 C 0 km/h
353 03-07-2008 22:36:03 15.5 C 12.03 g/m*3 15.5 C 0 km/h
354 03-07-2008 22:48:03 15.4 C 11.96 g/m*3 15.4 C 0 km/h
355 03-07-2008 23:00:03 15.3 C 11.88 g/m*3 15.3 C 0 km/h
356 03-07-2008 23:12:03 15.1 C 11.74 g/m*3 15.1 C 0 km/h
357 03-07-2008 23:24:03 15.2 C 11.81 g/m*3 15.2 C 0 km/h
358 03-07-2008 23:36:03 15.4 C 11.96 g/m*3 15.4 C 0 km/h
359 03-07-2008 23:48:03 15.4 C 11.96 g/m*3 15.4 C 0 km/h

Legende:
   Min
   Max


Maximal/Minimal-Werte vom 01.07.2008 - 03.07.2008

Sensor Min Max Avg
Temp
(Aussen-T/F)
13.9 °C
01-07-2008  06:09:04
35.3 °C
02-07-2008  17:58:02
23.68 °C
Abs-Feuchte
(Aussen-T/F)
6.4 g/m*3
01-07-2008  13:21:02
15.13 g/m*3
02-07-2008  20:58:01
10.01 g/m*3
Windchill
(Aussen-T/F)
13.9 C
01-07-2008  06:09:04
35.3 C
02-07-2008  17:58:02
23.62 C

Die Daten stammen von einer Davis Vantage Pro 2 Wetter-Station und werden unter Linux mit der Software wview2wettercgi und aufbereitet. Alle Angaben erfolgen ohne Gewähr für ihre Vollständigkeit oder Richtigkeit.
Kontakt: Rainer Krienke krienke@uni-koblenz.de . Meine Webseiten an der Uni Koblenz oder privat.
Version: $Revision: 0.78 $